Time;durP1;ratioP1;P1;durP2;ratioP2;P2;SDS_P1;SDS_P2;PMS_P1;PMS_P2;Temp;Humidity;BMP_temperature;BMP_pressure;BME280_temperature;BME280_humidity;BME280_pressure;Samples;Min_cycle;Max_cycle;Signal;HPM_P1;HPM_P2
2022/04/25 00:00:29;;;;;;;17.27;12.40;;;8.90;99.90;;;;;;5043914;28;20208;-93
2022/04/25 00:02:57;;;;;;;14.50;12.15;;;9.00;99.90;;;;;;5038076;28;20190;-93
2022/04/25 00:05:24;;;;;;;15.18;12.10;;;9.00;99.90;;;;;;5047771;28;20325;-94
2022/04/25 00:07:51;;;;;;;14.98;11.73;;;9.00;99.90;;;;;;5046167;28;20327;-93
2022/04/25 00:10:18;;;;;;;10.90;9.75;;;9.00;99.90;;;;;;5047368;28;20202;-94
2022/04/25 00:12:45;;;;;;;13.18;11.55;;;8.90;99.90;;;;;;5046720;28;20206;-93
2022/04/25 00:15:14;;;;;;;12.60;10.85;;;8.90;99.90;;;;;;5047677;28;20269;-93
2022/04/25 00:17:42;;;;;;;15.30;12.05;;;8.90;99.90;;;;;;5046929;28;20293;-92
2022/04/25 00:20:10;;;;;;;13.43;11.80;;;8.90;99.90;;;;;;5047927;28;20206;-93
2022/04/25 00:22:37;;;;;;;14.73;12.32;;;8.90;99.90;;;;;;5046424;28;20292;-93
2022/04/25 00:25:06;;;;;;;14.98;12.82;;;9.00;99.90;;;;;;5047232;28;20225;-93
2022/04/25 00:27:32;;;;;;;15.30;13.70;;;9.00;99.90;;;;;;5051319;28;20224;-93
2022/04/25 00:30:00;;;;;;;18.25;14.63;;;9.00;99.90;;;;;;5052975;28;20211;-93
2022/04/25 00:32:28;;;;;;;14.27;12.80;;;9.00;99.90;;;;;;5061384;28;20198;-94
2022/04/25 00:34:55;;;;;;;18.35;15.60;;;9.00;99.90;;;;;;5035239;28;20202;-93
2022/04/25 00:37:22;;;;;;;16.60;14.48;;;9.00;99.90;;;;;;5033813;28;20297;-92
2022/04/25 00:39:49;;;;;;;19.58;16.67;;;9.00;99.90;;;;;;5032390;28;20241;-94
2022/04/25 00:42:16;;;;;;;17.90;15.65;;;9.00;99.90;;;;;;5031573;28;20241;-93
2022/04/25 00:44:43;;;;;;;18.13;15.80;;;9.00;99.90;;;;;;5030963;28;20234;-93
2022/04/25 00:47:10;;;;;;;18.95;16.92;;;9.00;99.90;;;;;;5030501;28;20663;-93
2022/04/25 00:49:39;;;;;;;19.58;17.30;;;9.00;99.90;;;;;;5029269;28;20237;-93
2022/04/25 00:52:07;;;;;;;19.60;16.95;;;9.00;99.90;;;;;;5034379;28;20289;-94
2022/04/25 00:54:34;;;;;;;18.58;16.60;;;9.00;99.90;;;;;;5041230;28;20194;-95
2022/04/25 00:57:01;;;;;;;18.98;15.73;;;9.00;99.90;;;;;;5043063;28;20213;-93
2022/04/25 00:59:29;;;;;;;18.80;16.80;;;9.00;99.90;;;;;;5042821;28;20236;-93
2022/04/25 01:01:56;;;;;;;18.50;16.25;;;9.00;99.90;;;;;;5057157;28;20200;-94
2022/04/25 01:04:24;;;;;;;18.88;16.88;;;9.00;99.90;;;;;;5062228;28;20293;-94
2022/04/25 01:06:52;;;;;;;19.98;17.88;;;9.00;99.90;;;;;;5062025;28;20186;-95
2022/04/25 01:09:19;;;;;;;19.45;17.35;;;9.00;99.90;;;;;;5054451;28;20253;-93
2022/04/25 01:11:46;;;;;;;19.58;17.10;;;9.00;99.90;;;;;;5054544;28;20200;-95
2022/04/25 01:14:15;;;;;;;19.67;16.50;;;8.90;99.90;;;;;;5059437;28;20197;-94
2022/04/25 01:16:42;;;;;;;20.35;18.25;;;8.90;99.90;;;;;;5058583;28;20273;-94
2022/04/25 01:19:09;;;;;;;17.90;15.98;;;8.90;99.90;;;;;;5051345;28;20233;-94
2022/04/25 01:21:42;;;;;;;17.50;15.80;;;8.90;99.90;;;;;;5054180;28;20304;-94
2022/04/25 01:29:41;;;;;;;18.40;16.25;;;8.80;99.90;;;;;;5053034;28;20654;-95
2022/04/25 01:32:09;;;;;;;16.55;14.75;;;8.80;99.90;;;;;;5045772;28;20711;-94
2022/04/25 01:34:38;;;;;;;18.77;16.77;;;8.70;99.90;;;;;;5048933;28;20300;-95
2022/04/25 01:37:07;;;;;;;17.98;16.00;;;8.70;99.90;;;;;;5053459;28;20302;-93
2022/04/25 01:39:37;;;;;;;19.35;17.35;;;8.70;99.90;;;;;;5048866;28;20233;-93
2022/04/25 01:42:05;;;;;;;19.33;16.23;;;8.70;99.90;;;;;;5049352;28;20269;-93
2022/04/25 01:44:32;;;;;;;20.27;18.27;;;8.70;99.90;;;;;;5050764;28;20313;-93
2022/04/25 01:46:59;;;;;;;20.80;17.92;;;8.70;99.90;;;;;;5049824;28;20218;-93
2022/04/25 01:49:26;;;;;;;18.15;15.88;;;8.70;99.90;;;;;;5058687;28;20282;-96
2022/04/25 01:51:53;;;;;;;18.63;16.20;;;8.70;99.90;;;;;;5052052;28;20288;-93
2022/04/25 01:54:25;;;;;;;20.80;17.38;;;8.70;99.90;;;;;;5051108;28;20216;-94
2022/04/25 01:56:54;;;;;;;19.65;17.30;;;8.70;99.90;;;;;;5050291;28;20205;-93
2022/04/25 01:59:21;;;;;;;18.77;16.85;;;8.60;99.90;;;;;;5046523;28;20293;-92
2022/04/25 02:01:49;;;;;;;20.13;17.98;;;8.50;99.90;;;;;;5046255;28;20212;-93
2022/04/25 02:04:16;;;;;;;18.50;15.70;;;8.40;99.90;;;;;;5046379;28;20289;-93
2022/04/25 02:06:43;;;;;;;18.88;16.88;;;8.40;99.90;;;;;;5050818;28;20208;-93
2022/04/25 02:09:10;;;;;;;19.67;17.15;;;8.40;99.90;;;;;;5054262;28;20293;-93
2022/04/25 02:11:36;;;;;;;21.17;17.95;;;8.30;99.90;;;;;;5054454;28;20277;-93
2022/04/25 02:14:05;;;;;;;19.88;17.67;;;8.30;99.90;;;;;;5056072;28;20186;-94
2022/04/25 02:16:32;;;;;;;19.45;16.90;;;8.20;99.90;;;;;;5050310;28;20285;-93
2022/04/25 02:18:59;;;;;;;21.58;18.63;;;8.20;99.90;;;;;;5047216;28;20226;-93
2022/04/25 02:21:26;;;;;;;19.95;17.75;;;8.10;99.90;;;;;;5045577;28;20205;-93
2022/04/25 02:23:53;;;;;;;18.95;16.92;;;8.00;99.90;;;;;;5044698;28;20263;-94
2022/04/25 02:29:01;;;;;;;20.15;17.80;;;7.80;99.90;;;;;;5045061;28;20214;-93
2022/04/25 02:31:29;;;;;;;19.95;17.77;;;7.80;99.90;;;;;;5034025;28;20210;-94
2022/04/25 02:33:56;;;;;;;20.75;18.15;;;7.80;99.90;;;;;;5043731;28;20198;-93
2022/04/25 02:36:24;;;;;;;22.20;19.38;;;7.70;99.90;;;;;;5045514;28;20216;-93
2022/04/25 02:38:51;;;;;;;23.95;18.55;;;7.70;99.90;;;;;;5043990;28;20715;-92
2022/04/25 02:41:18;;;;;;;24.08;18.65;;;7.60;99.90;;;;;;5049069;28;20204;-94
2022/04/25 02:43:45;;;;;;;25.50;20.95;;;7.60;99.90;;;;;;5046284;28;20775;-93
2022/04/25 02:46:14;;;;;;;23.90;19.42;;;7.60;99.90;;;;;;5040869;28;20226;-94
2022/04/25 02:48:44;;;;;;;25.23;20.70;;;7.50;99.90;;;;;;5042852;28;20315;-95
2022/04/25 02:51:12;;;;;;;23.17;19.73;;;7.50;99.90;;;;;;5043171;28;20216;-93
2022/04/25 02:53:39;;;;;;;23.15;20.40;;;7.50;99.90;;;;;;5043469;28;20208;-93
2022/04/25 02:56:07;;;;;;;23.40;20.58;;;7.40;99.90;;;;;;5044415;28;20197;-93
2022/04/25 02:58:35;;;;;;;23.80;19.80;;;7.40;99.90;;;;;;5045542;28;20221;-93
2022/04/25 03:01:04;;;;;;;22.67;19.67;;;7.40;99.90;;;;;;5039911;28;20202;-94
2022/04/25 03:03:32;;;;;;;23.17;19.75;;;7.30;99.90;;;;;;5032366;28;20622;-93
2022/04/25 03:06:02;;;;;;;22.88;19.88;;;7.30;99.90;;;;;;5039804;28;20222;-92
2022/04/25 03:08:34;;;;;;;23.33;18.75;;;7.20;99.90;;;;;;5040960;28;20225;-92
2022/04/25 03:11:03;;;;;;;22.95;19.25;;;7.10;99.90;;;;;;5041752;28;20209;-93
2022/04/25 03:13:30;;;;;;;23.92;19.27;;;7.00;99.90;;;;;;5041201;28;20221;-93
2022/04/25 03:15:57;;;;;;;22.67;19.20;;;6.90;99.90;;;;;;5041956;28;20224;-94
2022/04/25 03:18:24;;;;;;;23.23;18.92;;;6.90;99.90;;;;;;5041917;28;20253;-93
2022/04/25 03:20:52;;;;;;;22.15;18.60;;;6.80;99.90;;;;;;5043883;28;20212;-92
2022/04/25 03:23:23;;;;;;;19.85;17.30;;;6.80;99.90;;;;;;5044016;28;20201;-93
2022/04/25 03:25:51;;;;;;;20.60;17.95;;;6.70;99.90;;;;;;5045054;28;20289;-93
2022/04/25 03:28:19;;;;;;;21.73;18.38;;;6.60;99.90;;;;;;5046802;28;20222;-92
2022/04/25 03:30:50;;;;;;;21.52;19.25;;;6.60;99.90;;;;;;5036440;28;20297;-94
2022/04/25 03:33:19;;;;;;;22.23;18.00;;;6.60;99.90;;;;;;5034775;28;20210;-94
2022/04/25 03:35:47;;;;;;;21.80;18.70;;;6.60;99.90;;;;;;5046473;28;20225;-92
2022/04/25 03:38:16;;;;;;;20.23;17.85;;;6.60;99.90;;;;;;5046638;28;20218;-95
2022/04/25 03:40:44;;;;;;;21.75;19.25;;;6.60;99.90;;;;;;5049525;28;20208;-96
2022/04/25 03:43:17;;;;;;;25.27;18.60;;;6.60;99.90;;;;;;5044949;28;20249;-94
2022/04/25 03:45:44;;;;;;;22.60;18.55;;;6.70;99.90;;;;;;5045647;28;20249;-93
2022/04/25 03:48:11;;;;;;;22.75;19.10;;;6.70;99.90;;;;;;5046195;28;20271;-92
2022/04/25 03:50:42;;;;;;;19.30;17.08;;;6.80;99.90;;;;;;5043975;28;20229;-91
2022/04/25 03:53:11;;;;;;;22.00;18.13;;;6.70;99.90;;;;;;5034807;28;20573;-92
2022/04/25 03:58:23;;;;;;;20.98;16.88;;;6.60;99.90;;;;;;5029117;28;20276;-91
2022/04/25 04:00:51;;;;;;;23.40;18.77;;;6.60;99.90;;;;;;5027831;28;20206;-93
2022/04/25 04:03:19;;;;;;;21.17;17.05;;;6.60;99.90;;;;;;5021948;28;20202;-93
2022/04/25 04:05:46;;;;;;;20.15;17.48;;;6.60;99.90;;;;;;5025291;28;20222;-92
2022/04/25 04:08:16;;;;;;;21.42;19.02;;;6.60;99.90;;;;;;5023430;28;20706;-92
2022/04/25 04:10:43;;;;;;;20.17;16.95;;;6.50;99.90;;;;;;5023577;28;20222;-92
2022/04/25 04:13:10;;;;;;;22.67;18.95;;;6.50;99.90;;;;;;5028262;28;20194;-91
2022/04/25 04:15:38;;;;;;;26.05;19.35;;;6.40;99.90;;;;;;5024418;28;20206;-94
2022/04/25 04:18:08;;;;;;;20.13;17.45;;;6.40;99.90;;;;;;5026462;28;20276;-92
2022/04/25 04:20:35;;;;;;;26.77;19.60;;;6.40;99.90;;;;;;5025870;28;20404;-91
2022/04/25 04:23:02;;;;;;;22.88;17.85;;;6.50;99.90;;;;;;5019264;28;20202;-91
2022/04/25 04:25:30;;;;;;;25.00;20.33;;;6.50;99.90;;;;;;5027196;28;20231;-92
2022/04/25 04:27:57;;;;;;;24.25;19.52;;;6.60;99.90;;;;;;5021492;28;20218;-90
2022/04/25 04:30:24;;;;;;;24.38;19.10;;;6.60;99.90;;;;;;5012109;28;20206;-91
2022/04/25 04:32:53;;;;;;;22.15;18.60;;;6.70;99.90;;;;;;5022283;28;20202;-91
2022/04/25 04:38:01;;;;;;;23.48;18.35;;;6.70;99.90;;;;;;5031599;28;20214;-91
2022/04/25 04:40:31;;;;;;;22.58;18.20;;;6.80;99.90;;;;;;5032614;28;20579;-91
2022/04/25 04:42:58;;;;;;;24.73;19.15;;;6.80;99.90;;;;;;5032325;28;20213;-91
2022/04/25 04:45:26;;;;;;;23.42;17.65;;;6.90;99.90;;;;;;5032262;28;20225;-91
2022/04/25 04:50:23;;;;;;;21.70;19.30;;;7.00;99.90;;;;;;5102321;22;20240;-94
2022/04/25 04:52:52;;;;;;;23.90;20.25;;;7.10;99.90;;;;;;5090962;28;20204;-93
2022/04/25 04:55:19;;;;;;;22.98;18.83;;;7.10;99.90;;;;;;5089057;28;20291;-93
2022/04/25 04:57:48;;;;;;;26.98;21.15;;;7.20;99.90;;;;;;5090118;28;20214;-94
2022/04/25 05:00:17;;;;;;;24.17;20.42;;;7.20;99.90;;;;;;5102570;22;20916;-71
2022/04/25 05:02:45;;;;;;;21.73;18.02;;;7.20;99.90;;;;;;5041348;28;20217;-69
2022/04/25 05:05:12;;;;;;;23.27;18.60;;;7.30;99.90;;;;;;5030060;28;20222;-69
2022/04/25 05:07:41;;;;;;;24.20;19.92;;;7.30;99.90;;;;;;5030327;28;20210;-69
2022/04/25 05:10:09;;;;;;;24.67;19.40;;;7.40;99.90;;;;;;5009980;28;20202;-69
2022/04/25 05:12:46;;;;;;;29.70;20.10;;;7.40;99.90;;;;;;5010757;28;20206;-69
2022/04/25 05:15:14;;;;;;;23.02;18.88;;;7.50;99.90;;;;;;5013857;28;20289;-68
2022/04/25 05:17:42;;;;;;;23.45;18.40;;;7.60;99.90;;;;;;5014171;28;20198;-68
2022/04/25 05:20:10;;;;;;;24.30;19.27;;;7.60;99.90;;;;;;5013584;28;20209;-69
2022/04/25 05:22:41;;;;;;;24.35;19.63;;;7.70;99.90;;;;;;5014195;28;20289;-68
2022/04/25 05:25:08;;;;;;;21.30;18.73;;;7.70;99.90;;;;;;5013716;28;20257;-69
2022/04/25 05:27:36;;;;;;;22.15;18.15;;;7.80;99.90;;;;;;5013986;28;20213;-69
2022/04/25 05:30:02;;;;;;;26.80;20.95;;;7.80;99.90;;;;;;5013151;28;20219;-69
2022/04/25 05:32:41;;;;;;;22.35;19.83;;;7.90;99.90;;;;;;5017833;28;20620;-69
2022/04/25 05:35:09;;;;;;;23.08;19.45;;;8.00;99.90;;;;;;5013625;28;20217;-69
2022/04/25 05:37:36;;;;;;;22.08;18.55;;;8.10;99.90;;;;;;5013846;28;20574;-68
2022/04/25 05:40:05;;;;;;;21.05;17.30;;;8.10;99.90;;;;;;5013125;28;20265;-68
2022/04/25 05:42:32;;;;;;;21.80;19.10;;;8.30;99.90;;;;;;5013821;28;20205;-69
2022/04/25 05:45:00;;;;;;;24.77;20.08;;;8.30;99.90;;;;;;5013400;28;20206;-69
2022/04/25 05:47:27;;;;;;;23.48;19.08;;;8.50;99.90;;;;;;5010568;28;20202;-68
2022/04/25 05:52:38;;;;;;;23.73;20.80;;;8.80;99.90;;;;;;5012491;28;21118;-69
2022/04/25 05:55:07;;;;;;;24.48;20.55;;;8.90;99.90;;;;;;5012406;28;20203;-69
2022/04/25 05:57:37;;;;;;;23.83;19.80;;;9.00;99.90;;;;;;5012529;28;20587;-69
2022/04/25 06:00:07;;;;;;;21.45;18.67;;;9.10;99.90;;;;;;5012247;28;20230;-69
2022/04/25 06:02:36;;;;;;;20.55;17.65;;;9.20;99.90;;;;;;5024464;28;20213;-69
2022/04/25 06:05:04;;;;;;;22.98;19.55;;;9.30;99.90;;;;;;5030280;28;20261;-69
2022/04/25 06:07:31;;;;;;;21.77;19.40;;;9.30;99.90;;;;;;5032036;28;20197;-69
2022/04/25 06:09:58;;;;;;;20.60;18.50;;;9.40;99.90;;;;;;5030750;28;20222;-69
2022/04/25 06:12:26;;;;;;;20.40;18.27;;;9.50;99.90;;;;;;5031687;28;20202;-69
2022/04/25 06:14:54;;;;;;;21.35;18.17;;;9.60;99.90;;;;;;5031945;28;20300;-68
2022/04/25 06:17:20;;;;;;;19.88;17.60;;;9.70;99.90;;;;;;5031367;28;20198;-69
2022/04/25 06:19:47;;;;;;;19.20;17.20;;;9.80;99.90;;;;;;5031048;28;20233;-68
2022/04/25 06:22:13;;;;;;;23.33;18.60;;;10.00;99.90;;;;;;5030888;28;20208;-69
2022/04/25 06:24:40;;;;;;;18.27;16.38;;;10.10;99.90;;;;;;5030994;28;20202;-70
2022/04/25 06:27:09;;;;;;;19.75;17.65;;;10.30;99.90;;;;;;5031211;28;20249;-68
2022/04/25 06:29:44;;;;;;;17.77;15.88;;;10.40;99.90;;;;;;5030827;28;20222;-69
2022/04/25 06:32:11;;;;;;;22.40;16.38;;;10.50;99.90;;;;;;5018181;28;20202;-70
2022/04/25 06:34:37;;;;;;;18.25;16.35;;;10.60;99.90;;;;;;5011279;28;20727;-68
2022/04/25 06:37:05;;;;;;;18.00;16.10;;;10.70;99.90;;;;;;5011375;28;20680;-68
2022/04/25 06:39:31;;;;;;;18.23;16.30;;;10.70;99.90;;;;;;5010819;28;20222;-70
2022/04/25 06:41:58;;;;;;;18.80;16.80;;;10.80;99.90;;;;;;5012456;28;20209;-69
2022/04/25 06:44:25;;;;;;;17.70;15.75;;;10.80;99.90;;;;;;5013721;28;20198;-69
2022/04/25 06:46:53;;;;;;;19.23;16.40;;;10.80;99.90;;;;;;5012562;28;20222;-69
2022/04/25 06:49:24;;;;;;;17.92;16.13;;;10.80;99.90;;;;;;5011731;28;20241;-69
2022/04/25 06:51:51;;;;;;;17.70;15.85;;;10.90;99.90;;;;;;5012527;28;20249;-69
2022/04/25 06:54:19;;;;;;;18.70;16.80;;;11.20;99.90;;;;;;5012367;28;20633;-69
2022/04/25 06:56:46;;;;;;;17.33;15.45;;;11.40;99.90;;;;;;5012350;28;20207;-69
2022/04/25 06:59:12;;;;;;;16.70;15.05;;;11.60;99.90;;;;;;5011542;28;20233;-69
2022/04/25 07:01:40;;;;;;;16.30;14.60;;;11.60;99.90;;;;;;5012191;28;20712;-69
2022/04/25 07:04:08;;;;;;;15.80;14.30;;;11.60;99.90;;;;;;5012083;28;20260;-69
2022/04/25 07:06:34;;;;;;;15.82;13.82;;;11.60;99.90;;;;;;5012327;28;20229;-69
2022/04/25 07:09:01;;;;;;;17.13;15.32;;;11.60;99.90;;;;;;5011400;28;20591;-69
2022/04/25 07:11:28;;;;;;;15.32;13.82;;;11.60;99.90;;;;;;5012094;28;20210;-69
2022/04/25 07:13:55;;;;;;;14.25;12.90;;;11.70;99.90;;;;;;5012345;28;20202;-69
2022/04/25 07:16:24;;;;;;;15.55;14.05;;;11.90;99.90;;;;;;5012038;28;20210;-69
2022/04/25 07:18:51;;;;;;;16.87;14.93;;;11.90;99.90;;;;;;5011342;28;20226;-69
2022/04/25 07:29:32;;;;;;;14.10;12.70;;;13.00;99.90;;;;;;5011210;28;20457;-69
2022/04/25 07:31:59;;;;;;;14.33;12.50;;;12.90;99.90;;;;;;5011686;28;20467;-69
2022/04/25 07:34:25;;;;;;;14.43;13.07;;;12.80;99.90;;;;;;5011979;28;20472;-69
2022/04/25 07:36:54;;;;;;;14.20;12.70;;;12.70;99.90;;;;;;5011035;28;20480;-69
2022/04/25 07:39:21;;;;;;;15.73;13.87;;;12.60;99.90;;;;;;5011021;28;20489;-69
2022/04/25 07:41:48;;;;;;;15.00;13.50;;;12.50;99.90;;;;;;5011598;28;20472;-69
2022/04/25 07:44:15;;;;;;;14.00;12.70;;;12.30;99.90;;;;;;5011835;28;20584;-69
2022/04/25 07:46:42;;;;;;;15.27;13.98;;;12.10;99.90;;;;;;5014554;28;20317;-69
2022/04/25 07:49:09;;;;;;;14.82;13.32;;;12.10;99.90;;;;;;5014409;28;20222;-69
2022/04/25 07:51:36;;;;;;;15.13;13.63;;;11.90;99.90;;;;;;5013887;28;20681;-69
2022/04/25 07:54:05;;;;;;;13.87;12.37;;;11.70;99.90;;;;;;5011722;28;20206;-69
2022/04/25 07:56:32;;;;;;;15.02;13.48;;;11.60;99.90;;;;;;5011808;28;20461;-69
2022/04/25 07:59:00;;;;;;;14.70;13.15;;;11.60;99.90;;;;;;5011145;28;20226;-69
2022/04/25 08:01:27;;;;;;;14.93;13.48;;;11.50;99.90;;;;;;5011277;28;20696;-69
2022/04/25 08:03:54;;;;;;;15.48;13.93;;;11.50;99.90;;;;;;5011729;28;20206;-69
2022/04/25 08:06:21;;;;;;;15.52;14.02;;;11.50;99.90;;;;;;5011528;28;20739;-69
2022/04/25 08:08:48;;;;;;;14.32;12.80;;;11.50;99.90;;;;;;5010641;28;20222;-69
2022/04/25 08:11:16;;;;;;;14.80;13.30;;;11.50;99.90;;;;;;5011062;28;20206;-69
2022/04/25 08:19:13;;;;;;;13.63;12.30;;;12.00;99.90;;;;;;5010452;28;20237;-69
2022/04/25 08:21:40;;;;;;;15.13;13.55;;;12.30;99.90;;;;;;5011279;28;20232;-69
2022/04/25 08:24:08;;;;;;;15.15;13.57;;;12.40;99.90;;;;;;5010947;28;20226;-69
2022/04/25 08:26:36;;;;;;;14.85;13.50;;;12.50;99.90;;;;;;5011424;28;20229;-69
2022/04/25 08:29:03;;;;;;;14.70;13.20;;;12.50;99.90;;;;;;5010183;28;20223;-69
2022/04/25 08:31:30;;;;;;;15.20;13.70;;;12.50;99.90;;;;;;5011151;28;20890;-69
2022/04/25 08:33:57;;;;;;;16.83;15.23;;;12.90;99.90;;;;;;5010946;28;20457;-69
2022/04/25 08:36:24;;;;;;;15.53;14.03;;;13.30;99.90;;;;;;5010906;28;20948;-69
2022/04/25 08:38:51;;;;;;;16.23;14.63;;;13.70;99.90;;;;;;5010645;28;20531;-69
2022/04/25 08:41:21;;;;;;;15.60;14.10;;;13.30;99.90;;;;;;5011810;28;20523;-69
2022/04/25 08:43:52;;;;;;;13.40;12.10;;;13.30;99.90;;;;;;5011602;28;20536;-69
2022/04/25 08:46:21;;;;;;;16.00;14.10;;;13.20;99.90;;;;;;5011322;28;20520;-69
2022/04/25 08:48:48;;;;;;;14.43;12.93;;;13.50;99.90;;;;;;5013994;28;20488;-69
2022/04/25 08:51:16;;;;;;;15.53;13.93;;;13.70;99.90;;;;;;5015367;28;20472;-69
2022/04/25 08:53:44;;;;;;;17.27;15.33;;;13.60;99.90;;;;;;5015558;28;20940;-69
2022/04/25 08:56:12;;;;;;;15.23;13.70;;;13.20;99.90;;;;;;5015812;28;20556;-69
2022/04/25 08:58:41;;;;;;;17.20;15.40;;;12.80;99.90;;;;;;5014259;28;20492;-69
2022/04/25 09:01:10;;;;;;;16.77;15.07;;;12.40;99.90;;;;;;5014374;28;20473;-69
2022/04/25 09:03:37;;;;;;;16.95;15.25;;;12.20;99.90;;;;;;5014602;28;20674;-70
2022/04/25 09:06:06;;;;;;;16.40;14.77;;;12.10;99.90;;;;;;5014572;28;20205;-70
2022/04/25 09:08:32;;;;;;;16.23;14.53;;;11.90;99.90;;;;;;5013642;28;20484;-70
2022/04/25 09:12:09;;;;;;;16.83;14.70;;;11.90;99.90;;;;;;5014270;28;20476;-70
2022/04/25 09:13:48;;;;;;;14.43;13.03;;;11.80;99.90;;;;;;5014345;28;20203;-70
2022/04/25 09:16:17;;;;;;;16.53;14.80;;;11.80;99.90;;;;;;5014412;28;20952;-70
2022/04/25 09:18:44;;;;;;;14.73;13.20;;;11.80;99.90;;;;;;5013715;28;20485;-70
2022/04/25 09:21:13;;;;;;;16.55;14.75;;;11.90;99.90;;;;;;5014100;28;20472;-70
2022/04/25 09:23:40;;;;;;;16.03;14.33;;;12.20;99.90;;;;;;5014193;28;20210;-70
2022/04/25 09:26:11;;;;;;;16.00;14.40;;;12.20;99.90;;;;;;5013962;28;20457;-69
2022/04/25 09:28:47;;;;;;;15.40;13.80;;;12.30;99.90;;;;;;5013709;28;20507;-70
2022/04/25 09:31:16;;;;;;;18.63;15.00;;;12.30;99.90;;;;;;5014002;28;20547;-68
2022/04/25 09:33:43;;;;;;;14.40;13.00;;;12.40;99.90;;;;;;5014150;28;20465;-68
2022/04/25 09:36:09;;;;;;;16.17;14.57;;;12.40;99.90;;;;;;5014030;28;20465;-70
2022/04/25 09:38:38;;;;;;;15.37;13.87;;;12.50;99.90;;;;;;5013302;28;20485;-70
2022/04/25 09:41:07;;;;;;;16.13;14.63;;;12.60;99.90;;;;;;5013703;28;20468;-67
2022/04/25 09:43:35;;;;;;;15.40;13.80;;;12.80;99.90;;;;;;5013950;28;20467;-68
2022/04/25 09:46:03;;;;;;;15.20;13.70;;;13.10;99.90;;;;;;5013567;28;20478;-68
2022/04/25 09:48:31;;;;;;;15.37;13.77;;;13.50;99.90;;;;;;5013326;28;20851;-68
2022/04/25 09:51:02;;;;;;;13.83;12.37;;;13.80;99.90;;;;;;5013778;28;20875;-68
2022/04/25 09:53:43;;;;;;;16.13;14.53;;;14.10;99.90;;;;;;5013790;28;20523;-70
2022/04/25 09:56:12;;;;;;;14.73;13.33;;;14.50;99.90;;;;;;5013339;28;20497;-70
2022/04/25 09:58:40;;;;;;;14.37;12.97;;;14.90;99.90;;;;;;5012979;28;20492;-69
2022/04/25 10:01:13;;;;;;;14.13;12.63;;;15.60;99.90;;;;;;5012998;28;20508;-69
2022/04/25 10:03:42;;;;;;;13.87;12.57;;;16.10;99.90;;;;;;5013752;28;20501;-69
2022/04/25 10:06:09;;;;;;;15.13;13.53;;;16.30;99.90;;;;;;5013299;28;20465;-69
2022/04/25 10:08:37;;;;;;;14.50;13.10;;;16.40;99.90;;;;;;5012764;28;20484;-69
2022/04/25 10:11:06;;;;;;;13.70;12.30;;;16.40;99.90;;;;;;5013430;28;20464;-69
2022/04/25 10:13:35;;;;;;;15.80;14.17;;;16.30;99.90;;;;;;5013657;28;20458;-70
2022/04/25 10:16:03;;;;;;;12.53;11.40;;;16.40;99.90;;;;;;5014129;28;20511;-69
2022/04/25 10:18:31;;;;;;;12.37;11.27;;;16.60;99.90;;;;;;5012682;28;20488;-70
2022/04/25 10:21:01;;;;;;;13.50;12.30;;;16.90;99.90;;;;;;5012929;28;20458;-69
2022/04/25 10:23:28;;;;;;;14.27;12.87;;;17.20;99.90;;;;;;5013583;28;20461;-70
2022/04/25 10:25:56;;;;;;;13.03;11.83;;;17.40;99.90;;;;;;5013021;28;20556;-68
2022/04/25 10:28:29;;;;;;;12.73;11.53;;;17.40;99.90;;;;;;5012184;28;20515;-68
2022/04/25 10:31:02;;;;;;;14.30;13.00;;;17.50;99.90;;;;;;5013108;28;20551;-69
2022/04/25 10:33:48;;;;;;;13.00;11.80;;;17.40;99.90;;;;;;5013811;28;20496;-69
2022/04/25 10:36:42;;;;;;;13.07;11.70;;;17.40;99.90;;;;;;5012894;28;20469;-69
2022/04/25 10:39:13;;;;;;;13.10;11.70;;;17.10;99.90;;;;;;5011909;28;20576;-70
2022/04/25 10:44:53;;;;;;;12.90;11.17;;;16.80;99.50;;;;;;5013045;28;20441;-70
2022/04/25 10:47:21;;;;;;;13.43;12.13;;;16.70;99.90;;;;;;5012576;28;20477;-69
2022/04/25 10:49:50;;;;;;;13.83;12.43;;;16.70;99.90;;;;;;5082445;22;20494;-92
2022/04/25 10:52:55;;;;;;;12.70;11.40;;;16.60;99.90;;;;;;5080269;28;20531;-93
2022/04/25 10:55:46;;;;;;;13.50;12.20;;;16.50;99.90;;;;;;5072916;22;20506;-72
2022/04/25 10:58:20;;;;;;;13.70;12.10;;;16.30;99.90;;;;;;5051721;28;20471;-72
2022/04/25 11:00:51;;;;;;;13.60;12.30;;;16.30;99.90;;;;;;5052165;28;20516;-72
2022/04/25 11:03:20;;;;;;;14.20;12.80;;;16.40;99.90;;;;;;5052534;28;20452;-72
2022/04/25 11:05:48;;;;;;;12.67;11.37;;;16.20;99.90;;;;;;5051834;28;20467;-71
2022/04/25 11:08:29;;;;;;;13.77;12.50;;;16.20;99.90;;;;;;5051382;28;20541;-72
2022/04/25 11:11:03;;;;;;;13.30;12.10;;;16.00;99.90;;;;;;5051061;28;20502;-72
2022/04/25 11:13:31;;;;;;;12.50;10.77;;;16.10;99.90;;;;;;5052091;28;20562;-71
2022/04/25 11:16:01;;;;;;;15.70;12.20;;;15.90;99.90;;;;;;5051911;28;20467;-72
2022/04/25 11:18:33;;;;;;;12.07;10.97;;;15.80;99.90;;;;;;5051300;28;20546;-71
2022/04/25 11:21:04;;;;;;;12.27;11.17;;;15.60;99.90;;;;;;5051666;28;21008;-71
2022/04/25 11:23:32;;;;;;;11.00;10.00;;;15.20;99.90;;;;;;5051870;28;20888;-71
2022/04/25 11:26:00;;;;;;;11.63;10.33;;;15.10;99.90;;;;;;5052055;28;20479;-71
2022/04/25 11:28:29;;;;;;;11.40;10.40;;;14.90;99.90;;;;;;5051129;28;21030;-71
2022/04/25 11:31:20;;;;;;;11.83;10.43;;;14.70;99.90;;;;;;5051752;28;20459;-71
2022/04/25 11:33:49;;;;;;;11.03;10.00;;;14.50;99.90;;;;;;5051525;28;20515;-71
2022/04/25 11:36:16;;;;;;;12.17;10.97;;;14.40;99.90;;;;;;5051409;28;20455;-71
2022/04/25 11:41:30;;;;;;;12.40;11.10;;;14.10;99.90;;;;;;5051606;28;20439;-71
2022/04/25 11:43:58;;;;;;;12.60;11.40;;;14.00;99.90;;;;;;5051656;28;20463;-71
2022/04/25 11:46:25;;;;;;;12.77;11.60;;;13.80;99.90;;;;;;5051023;28;20491;-71
2022/04/25 11:48:53;;;;;;;11.40;10.40;;;13.60;99.90;;;;;;5050325;28;20574;-71
2022/04/25 11:51:23;;;;;;;11.70;10.60;;;13.50;99.90;;;;;;5051015;28;20976;-71
2022/04/25 11:53:52;;;;;;;14.10;12.30;;;13.40;99.90;;;;;;5050771;28;20466;-71
2022/04/25 11:56:19;;;;;;;13.63;12.23;;;13.20;99.90;;;;;;5050722;28;20467;-71
2022/04/25 11:58:45;;;;;;;14.97;13.30;;;13.10;99.90;;;;;;5050039;28;20528;-70
2022/04/25 12:01:14;;;;;;;13.53;12.10;;;13.10;99.90;;;;;;5050676;28;20465;-70
2022/04/25 12:03:40;;;;;;;14.57;13.07;;;13.00;99.90;;;;;;5050382;28;20887;-71
2022/04/25 12:06:12;;;;;;;14.10;12.67;;;12.90;99.90;;;;;;5050583;28;20459;-70
2022/04/25 12:17:00;;;;;;;13.30;11.90;;;12.70;99.90;;;;;;5050593;28;20526;-72
2022/04/25 12:19:27;;;;;;;13.93;12.53;;;12.70;99.90;;;;;;5049638;28;20997;-72
2022/04/25 12:22:00;;;;;;;15.07;13.57;;;12.70;99.90;;;;;;5050217;28;20833;-71
2022/04/25 12:24:27;;;;;;;13.77;12.17;;;12.70;99.90;;;;;;5050272;28;20460;-71
2022/04/25 12:26:53;;;;;;;14.03;12.63;;;12.80;99.90;;;;;;5050160;28;20466;-71
2022/04/25 12:29:20;;;;;;;14.17;12.87;;;12.80;99.90;;;;;;5049633;28;20929;-71
2022/04/25 12:31:48;;;;;;;16.07;13.00;;;13.00;99.90;;;;;;5052568;28;20473;-70
2022/04/25 12:34:19;;;;;;;13.70;12.20;;;13.10;99.90;;;;;;5068498;28;20564;-70
2022/04/25 12:36:55;;;;;;;15.17;13.23;;;13.20;99.90;;;;;;5068654;28;20467;-70
2022/04/25 12:39:24;;;;;;;14.40;11.77;;;13.50;99.90;;;;;;5068170;28;20543;-70
2022/04/25 12:41:57;;;;;;;13.43;11.27;;;13.80;99.90;;;;;;5069175;28;20921;-70
2022/04/25 12:44:26;;;;;;;11.57;10.40;;;13.80;99.90;;;;;;5069198;28;20468;-70
2022/04/25 12:47:00;;;;;;;13.57;11.67;;;13.80;99.90;;;;;;5068533;28;20543;-71
2022/04/25 12:49:35;;;;;;;13.73;12.33;;;13.70;99.90;;;;;;5071717;28;20470;-71
2022/04/25 12:52:04;;;;;;;12.80;11.60;;;13.10;99.90;;;;;;5064838;28;20458;-71
2022/04/25 12:54:33;;;;;;;12.80;11.60;;;12.70;99.90;;;;;;5046836;28;20554;-70
2022/04/25 12:57:13;;;;;;;13.57;12.17;;;12.60;99.90;;;;;;5049019;28;20935;-72
2022/04/25 12:59:40;;;;;;;9.60;8.60;;;12.70;99.90;;;;;;5048361;28;20479;-70
2022/04/25 13:02:10;;;;;;;9.77;8.40;;;13.00;99.90;;;;;;5048828;28;20531;-72
2022/04/25 13:04:53;;;;;;;10.43;9.33;;;13.30;99.90;;;;;;5049515;28;20451;-70
2022/04/25 13:07:22;;;;;;;11.07;9.97;;;13.60;99.90;;;;;;5049666;28;20513;-71
2022/04/25 13:09:49;;;;;;;9.60;8.60;;;13.70;99.90;;;;;;5049014;28;20590;-70
2022/04/25 13:12:17;;;;;;;8.63;7.83;;;14.10;99.90;;;;;;5048570;28;20463;-70
2022/04/25 13:14:44;;;;;;;7.97;7.17;;;14.50;99.90;;;;;;5049592;28;21068;-70
2022/04/25 13:17:12;;;;;;;7.70;7.00;;;15.00;99.90;;;;;;5049051;28;20491;-71
2022/04/25 13:19:39;;;;;;;7.93;7.23;;;15.20;99.90;;;;;;5049334;28;20511;-71
2022/04/25 13:22:08;;;;;;;6.90;6.30;;;15.50;99.90;;;;;;5049573;28;20459;-71
2022/04/25 13:24:35;;;;;;;7.20;6.50;;;16.30;99.90;;;;;;5048955;28;20460;-71
2022/04/25 13:27:02;;;;;;;6.33;5.83;;;16.80;99.90;;;;;;5049730;28;20883;-71